sensor_id;sensor_type;location;lat;lon;timestamp;P1;durP1;ratioP1;P2;durP2;ratioP2
48263;SDS011;34086;51.076;13.722;2022-12-28T00:00:06;7.25;;;2.80;;
48263;SDS011;34086;51.076;13.722;2022-12-28T00:01:14;5.05;;;2.60;;
48263;SDS011;34086;51.076;13.722;2022-12-28T00:02:19;3.88;;;2.28;;
48263;SDS011;34086;51.076;13.722;2022-12-28T00:03:20;7.32;;;2.90;;
48263;SDS011;34086;51.076;13.722;2022-12-28T00:04:20;7.25;;;2.67;;
48263;SDS011;34086;51.076;13.722;2022-12-28T00:05:21;10.02;;;2.80;;
48263;SDS011;34086;51.076;13.722;2022-12-28T00:06:22;6.63;;;3.00;;
48263;SDS011;34086;51.076;13.722;2022-12-28T00:07:23;5.63;;;2.33;;
48263;SDS011;34086;51.076;13.722;2022-12-28T00:08:24;6.72;;;2.50;;
48263;SDS011;34086;51.076;13.722;2022-12-28T00:09:24;5.57;;;2.60;;
48263;SDS011;34086;51.076;13.722;2022-12-28T00:10:25;7.15;;;2.67;;
48263;SDS011;34086;51.076;13.722;2022-12-28T00:11:26;6.05;;;2.60;;
48263;SDS011;34086;51.076;13.722;2022-12-28T00:12:28;5.68;;;2.40;;
48263;SDS011;34086;51.076;13.722;2022-12-28T00:13:29;6.50;;;2.55;;
48263;SDS011;34086;51.076;13.722;2022-12-28T00:14:31;6.65;;;2.42;;
48263;SDS011;34086;51.076;13.722;2022-12-28T00:15:31;6.47;;;2.50;;
48263;SDS011;34086;51.076;13.722;2022-12-28T00:16:36;6.63;;;2.50;;
48263;SDS011;34086;51.076;13.722;2022-12-28T00:17:38;6.85;;;2.78;;
48263;SDS011;34086;51.076;13.722;2022-12-28T00:18:39;6.50;;;2.60;;
48263;SDS011;34086;51.076;13.722;2022-12-28T00:19:39;5.85;;;2.70;;
48263;SDS011;34086;51.076;13.722;2022-12-28T00:20:40;5.10;;;2.55;;
48263;SDS011;34086;51.076;13.722;2022-12-28T00:21:41;4.43;;;2.55;;
48263;SDS011;34086;51.076;13.722;2022-12-28T00:22:43;7.03;;;2.78;;
48263;SDS011;34086;51.076;13.722;2022-12-28T00:23:43;6.72;;;2.55;;
48263;SDS011;34086;51.076;13.722;2022-12-28T00:24:47;7.45;;;2.80;;
48263;SDS011;34086;51.076;13.722;2022-12-28T00:25:47;4.68;;;2.47;;
48263;SDS011;34086;51.076;13.722;2022-12-28T00:26:48;5.95;;;2.67;;
48263;SDS011;34086;51.076;13.722;2022-12-28T00:27:49;8.63;;;2.53;;
48263;SDS011;34086;51.076;13.722;2022-12-28T00:28:50;7.38;;;2.80;;
48263;SDS011;34086;51.076;13.722;2022-12-28T00:29:51;4.70;;;2.70;;
48263;SDS011;34086;51.076;13.722;2022-12-28T00:30:52;6.43;;;2.80;;
48263;SDS011;34086;51.076;13.722;2022-12-28T00:31:57;4.53;;;2.40;;
48263;SDS011;34086;51.076;13.722;2022-12-28T00:32:58;6.30;;;2.67;;
48263;SDS011;34086;51.076;13.722;2022-12-28T00:33:59;6.07;;;3.00;;
48263;SDS011;34086;51.076;13.722;2022-12-28T00:34:59;6.00;;;2.47;;
48263;SDS011;34086;51.076;13.722;2022-12-28T00:36:00;5.63;;;2.35;;
48263;SDS011;34086;51.076;13.722;2022-12-28T00:37:01;5.68;;;2.53;;
48263;SDS011;34086;51.076;13.722;2022-12-28T00:38:02;6.55;;;2.72;;
48263;SDS011;34086;51.076;13.722;2022-12-28T00:39:03;4.47;;;2.50;;
48263;SDS011;34086;51.076;13.722;2022-12-28T00:40:07;4.50;;;2.40;;
48263;SDS011;34086;51.076;13.722;2022-12-28T00:41:08;8.43;;;2.60;;
48263;SDS011;34086;51.076;13.722;2022-12-28T00:42:10;6.10;;;2.58;;
48263;SDS011;34086;51.076;13.722;2022-12-28T00:43:10;8.02;;;2.70;;
48263;SDS011;34086;51.076;13.722;2022-12-28T00:44:11;4.88;;;2.50;;
48263;SDS011;34086;51.076;13.722;2022-12-28T00:45:12;5.95;;;2.60;;
48263;SDS011;34086;51.076;13.722;2022-12-28T00:46:12;6.63;;;2.50;;
48263;SDS011;34086;51.076;13.722;2022-12-28T00:47:13;5.28;;;2.38;;
48263;SDS011;34086;51.076;13.722;2022-12-28T00:48:14;6.65;;;2.72;;
48263;SDS011;34086;51.076;13.722;2022-12-28T00:49:15;5.07;;;2.75;;
48263;SDS011;34086;51.076;13.722;2022-12-28T00:50:16;4.93;;;2.40;;
48263;SDS011;34086;51.076;13.722;2022-12-28T00:51:17;4.55;;;2.55;;
48263;SDS011;34086;51.076;13.722;2022-12-28T00:52:18;5.90;;;2.60;;
48263;SDS011;34086;51.076;13.722;2022-12-28T00:53:19;7.03;;;2.63;;
48263;SDS011;34086;51.076;13.722;2022-12-28T00:54:19;6.47;;;2.70;;
48263;SDS011;34086;51.076;13.722;2022-12-28T00:55:20;5.00;;;2.63;;
48263;SDS011;34086;51.076;13.722;2022-12-28T00:56:21;5.85;;;2.78;;
48263;SDS011;34086;51.076;13.722;2022-12-28T00:57:22;6.15;;;2.53;;
48263;SDS011;34086;51.076;13.722;2022-12-28T00:58:22;4.63;;;2.40;;
48263;SDS011;34086;51.076;13.722;2022-12-28T00:59:23;4.47;;;2.45;;
48263;SDS011;34086;51.076;13.722;2022-12-28T01:00:23;6.82;;;2.90;;
48263;SDS011;34086;51.076;13.722;2022-12-28T01:01:25;5.15;;;2.47;;
48263;SDS011;34086;51.076;13.722;2022-12-28T01:02:26;6.47;;;2.67;;
48263;SDS011;34086;51.076;13.722;2022-12-28T01:03:27;5.50;;;2.70;;
48263;SDS011;34086;51.076;13.722;2022-12-28T01:04:27;4.25;;;2.60;;
48263;SDS011;34086;51.076;13.722;2022-12-28T01:05:28;4.97;;;2.70;;
48263;SDS011;34086;51.076;13.722;2022-12-28T01:06:29;5.53;;;2.53;;
48263;SDS011;34086;51.076;13.722;2022-12-28T01:07:30;5.35;;;2.85;;
48263;SDS011;34086;51.076;13.722;2022-12-28T01:08:31;6.93;;;3.70;;
48263;SDS011;34086;51.076;13.722;2022-12-28T01:09:32;5.57;;;3.05;;
48263;SDS011;34086;51.076;13.722;2022-12-28T01:10:32;7.57;;;2.72;;
48263;SDS011;34086;51.076;13.722;2022-12-28T01:11:33;5.50;;;2.50;;
48263;SDS011;34086;51.076;13.722;2022-12-28T01:12:34;4.95;;;2.60;;
48263;SDS011;34086;51.076;13.722;2022-12-28T01:13:38;5.43;;;3.40;;
48263;SDS011;34086;51.076;13.722;2022-12-28T01:14:38;7.07;;;3.40;;
48263;SDS011;34086;51.076;13.722;2022-12-28T01:15:39;6.47;;;3.65;;
48263;SDS011;34086;51.076;13.722;2022-12-28T01:16:40;6.63;;;3.40;;
48263;SDS011;34086;51.076;13.722;2022-12-28T01:17:41;7.13;;;3.63;;
48263;SDS011;34086;51.076;13.722;2022-12-28T01:18:42;6.40;;;3.53;;
48263;SDS011;34086;51.076;13.722;2022-12-28T01:19:44;7.32;;;3.75;;
48263;SDS011;34086;51.076;13.722;2022-12-28T01:20:44;7.32;;;4.13;;
48263;SDS011;34086;51.076;13.722;2022-12-28T01:21:46;7.85;;;3.50;;
48263;SDS011;34086;51.076;13.722;2022-12-28T01:22:50;8.15;;;3.90;;
48263;SDS011;34086;51.076;13.722;2022-12-28T01:23:52;8.40;;;3.50;;
48263;SDS011;34086;51.076;13.722;2022-12-28T01:24:54;7.93;;;3.72;;
48263;SDS011;34086;51.076;13.722;2022-12-28T01:25:59;8.48;;;3.22;;
48263;SDS011;34086;51.076;13.722;2022-12-28T01:27:01;3.95;;;2.90;;
48263;SDS011;34086;51.076;13.722;2022-12-28T01:28:01;7.43;;;3.50;;
48263;SDS011;34086;51.076;13.722;2022-12-28T01:29:02;4.50;;;3.10;;
48263;SDS011;34086;51.076;13.722;2022-12-28T01:30:05;4.43;;;3.00;;
48263;SDS011;34086;51.076;13.722;2022-12-28T01:31:07;5.25;;;2.63;;
48263;SDS011;34086;51.076;13.722;2022-12-28T01:32:10;6.03;;;2.90;;
48263;SDS011;34086;51.076;13.722;2022-12-28T01:33:11;6.85;;;3.00;;
48263;SDS011;34086;51.076;13.722;2022-12-28T01:34:11;6.22;;;3.10;;
48263;SDS011;34086;51.076;13.722;2022-12-28T01:35:12;6.07;;;2.90;;
48263;SDS011;34086;51.076;13.722;2022-12-28T01:36:13;7.50;;;3.10;;
48263;SDS011;34086;51.076;13.722;2022-12-28T01:37:21;6.00;;;3.25;;
48263;SDS011;34086;51.076;13.722;2022-12-28T01:38:22;6.65;;;2.97;;
48263;SDS011;34086;51.076;13.722;2022-12-28T01:39:22;6.15;;;2.90;;
48263;SDS011;34086;51.076;13.722;2022-12-28T01:40:23;6.18;;;3.00;;
48263;SDS011;34086;51.076;13.722;2022-12-28T01:41:24;7.40;;;3.63;;
48263;SDS011;34086;51.076;13.722;2022-12-28T01:42:27;5.20;;;3.15;;
48263;SDS011;34086;51.076;13.722;2022-12-28T01:43:47;6.90;;;3.90;;
48263;SDS011;34086;51.076;13.722;2022-12-28T01:44:56;6.75;;;3.72;;
48263;SDS011;34086;51.076;13.722;2022-12-28T01:46:17;6.70;;;3.47;;
48263;SDS011;34086;51.076;13.722;2022-12-28T01:47:23;7.18;;;3.70;;
48263;SDS011;34086;51.076;13.722;2022-12-28T01:48:27;6.38;;;3.70;;
48263;SDS011;34086;51.076;13.722;2022-12-28T01:49:31;8.88;;;4.00;;
48263;SDS011;34086;51.076;13.722;2022-12-28T01:50:35;5.68;;;3.60;;
48263;SDS011;34086;51.076;13.722;2022-12-28T01:51:40;7.20;;;3.60;;
48263;SDS011;34086;51.076;13.722;2022-12-28T01:52:57;7.57;;;4.00;;
48263;SDS011;34086;51.076;13.722;2022-12-28T01:54:01;7.53;;;3.97;;
48263;SDS011;34086;51.076;13.722;2022-12-28T01:56:15;7.95;;;4.10;;
48263;SDS011;34086;51.076;13.722;2022-12-28T01:57:17;8.25;;;4.43;;
48263;SDS011;34086;51.076;13.722;2022-12-28T01:58:21;8.20;;;4.15;;
48263;SDS011;34086;51.076;13.722;2022-12-28T01:59:25;10.45;;;5.10;;
48263;SDS011;34086;51.076;13.722;2022-12-28T02:00:30;8.82;;;4.82;;
48263;SDS011;34086;51.076;13.722;2022-12-28T02:01:31;12.88;;;4.70;;
48263;SDS011;34086;51.076;13.722;2022-12-28T02:02:32;7.05;;;4.03;;
48263;SDS011;34086;51.076;13.722;2022-12-28T02:03:33;7.32;;;4.22;;
48263;SDS011;34086;51.076;13.722;2022-12-28T02:04:35;6.70;;;4.15;;
48263;SDS011;34086;51.076;13.722;2022-12-28T02:05:37;7.78;;;3.65;;
48263;SDS011;34086;51.076;13.722;2022-12-28T02:06:40;8.05;;;4.22;;
48263;SDS011;34086;51.076;13.722;2022-12-28T02:07:51;7.95;;;4.22;;
48263;SDS011;34086;51.076;13.722;2022-12-28T02:09:12;6.03;;;3.90;;
48263;SDS011;34086;51.076;13.722;2022-12-28T02:10:18;6.45;;;4.28;;
48263;SDS011;34086;51.076;13.722;2022-12-28T02:11:20;8.43;;;4.20;;
48263;SDS011;34086;51.076;13.722;2022-12-28T02:12:20;6.65;;;4.18;;
48263;SDS011;34086;51.076;13.722;2022-12-28T02:13:22;8.13;;;4.47;;
48263;SDS011;34086;51.076;13.722;2022-12-28T02:14:23;7.07;;;4.28;;
48263;SDS011;34086;51.076;13.722;2022-12-28T02:15:24;5.85;;;4.15;;
48263;SDS011;34086;51.076;13.722;2022-12-28T02:16:25;8.82;;;4.55;;
48263;SDS011;34086;51.076;13.722;2022-12-28T02:17:25;7.35;;;4.43;;
48263;SDS011;34086;51.076;13.722;2022-12-28T02:18:26;8.75;;;4.90;;
48263;SDS011;34086;51.076;13.722;2022-12-28T02:19:32;8.05;;;4.57;;
48263;SDS011;34086;51.076;13.722;2022-12-28T02:22:33;7.23;;;4.43;;
48263;SDS011;34086;51.076;13.722;2022-12-28T02:24:40;7.60;;;4.95;;
48263;SDS011;34086;51.076;13.722;2022-12-28T02:25:51;8.50;;;4.55;;
48263;SDS011;34086;51.076;13.722;2022-12-28T02:28:47;8.80;;;5.00;;
48263;SDS011;34086;51.076;13.722;2022-12-28T02:30:02;8.02;;;5.20;;
48263;SDS011;34086;51.076;13.722;2022-12-28T02:31:08;9.00;;;5.18;;
48263;SDS011;34086;51.076;13.722;2022-12-28T02:33:43;8.50;;;5.43;;
48263;SDS011;34086;51.076;13.722;2022-12-28T02:34:58;7.75;;;5.13;;
48263;SDS011;34086;51.076;13.722;2022-12-28T02:36:10;8.90;;;5.47;;
48263;SDS011;34086;51.076;13.722;2022-12-28T02:37:23;9.35;;;5.60;;
48263;SDS011;34086;51.076;13.722;2022-12-28T02:38:40;11.82;;;6.65;;
48263;SDS011;34086;51.076;13.722;2022-12-28T02:39:47;12.68;;;6.45;;
48263;SDS011;34086;51.076;13.722;2022-12-28T02:40:55;11.00;;;6.32;;
48263;SDS011;34086;51.076;13.722;2022-12-28T02:42:00;9.30;;;6.03;;
48263;SDS011;34086;51.076;13.722;2022-12-28T02:43:03;9.75;;;6.28;;
48263;SDS011;34086;51.076;13.722;2022-12-28T02:44:03;11.35;;;6.18;;
48263;SDS011;34086;51.076;13.722;2022-12-28T02:45:05;10.63;;;6.22;;
48263;SDS011;34086;51.076;13.722;2022-12-28T02:46:30;10.30;;;6.25;;
48263;SDS011;34086;51.076;13.722;2022-12-28T02:47:51;15.70;;;7.95;;
48263;SDS011;34086;51.076;13.722;2022-12-28T02:50:44;14.82;;;8.43;;
48263;SDS011;34086;51.076;13.722;2022-12-28T02:51:55;13.82;;;7.13;;
48263;SDS011;34086;51.076;13.722;2022-12-28T02:55:04;15.93;;;7.80;;
48263;SDS011;34086;51.076;13.722;2022-12-28T02:56:51;13.18;;;7.15;;
48263;SDS011;34086;51.076;13.722;2022-12-28T02:58:50;14.18;;;7.28;;
48263;SDS011;34086;51.076;13.722;2022-12-28T02:59:50;20.50;;;9.02;;
48263;SDS011;34086;51.076;13.722;2022-12-28T03:01:17;18.17;;;8.65;;
48263;SDS011;34086;51.076;13.722;2022-12-28T03:02:24;13.55;;;8.13;;
48263;SDS011;34086;51.076;13.722;2022-12-28T03:03:46;12.82;;;7.03;;
48263;SDS011;34086;51.076;13.722;2022-12-28T03:05:06;12.10;;;6.95;;
48263;SDS011;34086;51.076;13.722;2022-12-28T03:06:15;12.27;;;7.15;;
48263;SDS011;34086;51.076;13.722;2022-12-28T03:07:41;11.93;;;6.65;;
48263;SDS011;34086;51.076;13.722;2022-12-28T03:10:25;11.82;;;7.07;;
48263;SDS011;34086;51.076;13.722;2022-12-28T03:11:55;15.45;;;7.88;;
48263;SDS011;34086;51.076;13.722;2022-12-28T03:13:04;12.65;;;7.32;;
48263;SDS011;34086;51.076;13.722;2022-12-28T03:14:40;11.35;;;6.93;;
48263;SDS011;34086;51.076;13.722;2022-12-28T03:15:43;10.90;;;6.72;;
48263;SDS011;34086;51.076;13.722;2022-12-28T03:16:46;10.32;;;6.63;;
48263;SDS011;34086;51.076;13.722;2022-12-28T03:18:14;11.85;;;7.15;;
48263;SDS011;34086;51.076;13.722;2022-12-28T03:19:41;11.05;;;6.47;;
48263;SDS011;34086;51.076;13.722;2022-12-28T03:21:06;12.45;;;7.25;;
48263;SDS011;34086;51.076;13.722;2022-12-28T03:22:29;10.15;;;7.43;;
48263;SDS011;34086;51.076;13.722;2022-12-28T03:23:52;11.20;;;7.35;;
48263;SDS011;34086;51.076;13.722;2022-12-28T03:25:15;11.38;;;6.82;;
48263;SDS011;34086;51.076;13.722;2022-12-28T03:26:40;11.88;;;6.88;;
48263;SDS011;34086;51.076;13.722;2022-12-28T03:28:07;9.95;;;7.00;;
48263;SDS011;34086;51.076;13.722;2022-12-28T03:29:31;12.35;;;7.00;;
48263;SDS011;34086;51.076;13.722;2022-12-28T03:30:56;15.95;;;7.20;;
48263;SDS011;34086;51.076;13.722;2022-12-28T03:32:12;20.27;;;8.25;;
48263;SDS011;34086;51.076;13.722;2022-12-28T03:33:14;21.13;;;8.43;;
48263;SDS011;34086;51.076;13.722;2022-12-28T03:34:14;21.30;;;8.50;;
48263;SDS011;34086;51.076;13.722;2022-12-28T03:35:22;23.95;;;8.75;;
48263;SDS011;34086;51.076;13.722;2022-12-28T03:38:11;24.15;;;8.43;;
48263;SDS011;34086;51.076;13.722;2022-12-28T03:39:47;21.70;;;8.25;;
48263;SDS011;34086;51.076;13.722;2022-12-28T03:41:06;16.02;;;7.10;;
48263;SDS011;34086;51.076;13.722;2022-12-28T03:42:14;13.80;;;7.10;;
48263;SDS011;34086;51.076;13.722;2022-12-28T03:43:46;10.82;;;6.55;;
48263;SDS011;34086;51.076;13.722;2022-12-28T03:44:57;11.23;;;6.55;;
48263;SDS011;34086;51.076;13.722;2022-12-28T03:47:24;11.73;;;6.43;;
48263;SDS011;34086;51.076;13.722;2022-12-28T03:48:26;12.30;;;6.95;;
48263;SDS011;34086;51.076;13.722;2022-12-28T03:49:30;11.60;;;6.80;;
48263;SDS011;34086;51.076;13.722;2022-12-28T03:50:33;14.48;;;7.40;;
48263;SDS011;34086;51.076;13.722;2022-12-28T03:51:36;11.00;;;7.10;;
48263;SDS011;34086;51.076;13.722;2022-12-28T03:52:45;12.05;;;7.00;;
48263;SDS011;34086;51.076;13.722;2022-12-28T03:53:47;12.57;;;7.03;;
48263;SDS011;34086;51.076;13.722;2022-12-28T03:54:51;11.63;;;6.95;;
48263;SDS011;34086;51.076;13.722;2022-12-28T03:56:03;11.73;;;7.43;;
48263;SDS011;34086;51.076;13.722;2022-12-28T03:57:08;10.70;;;6.90;;
48263;SDS011;34086;51.076;13.722;2022-12-28T03:58:13;11.82;;;6.75;;
48263;SDS011;34086;51.076;13.722;2022-12-28T03:59:15;12.00;;;7.18;;
48263;SDS011;34086;51.076;13.722;2022-12-28T04:00:19;10.82;;;6.85;;
48263;SDS011;34086;51.076;13.722;2022-12-28T04:01:23;13.32;;;6.93;;
48263;SDS011;34086;51.076;13.722;2022-12-28T04:02:24;12.55;;;6.80;;
48263;SDS011;34086;51.076;13.722;2022-12-28T04:03:25;9.35;;;6.70;;
48263;SDS011;34086;51.076;13.722;2022-12-28T04:04:26;11.60;;;6.78;;
48263;SDS011;34086;51.076;13.722;2022-12-28T04:05:26;12.10;;;6.90;;
48263;SDS011;34086;51.076;13.722;2022-12-28T04:06:27;12.15;;;7.28;;
48263;SDS011;34086;51.076;13.722;2022-12-28T04:07:28;9.90;;;6.55;;
48263;SDS011;34086;51.076;13.722;2022-12-28T04:08:28;11.02;;;6.93;;
48263;SDS011;34086;51.076;13.722;2022-12-28T04:09:31;10.52;;;6.82;;
48263;SDS011;34086;51.076;13.722;2022-12-28T04:10:32;9.65;;;6.50;;
48263;SDS011;34086;51.076;13.722;2022-12-28T04:11:33;12.90;;;6.88;;
48263;SDS011;34086;51.076;13.722;2022-12-28T04:12:35;11.60;;;6.65;;
48263;SDS011;34086;51.076;13.722;2022-12-28T04:13:54;9.18;;;6.15;;
48263;SDS011;34086;51.076;13.722;2022-12-28T04:14:55;15.02;;;6.60;;
48263;SDS011;34086;51.076;13.722;2022-12-28T04:15:57;11.48;;;6.55;;
48263;SDS011;34086;51.076;13.722;2022-12-28T04:17:03;12.80;;;6.80;;
48263;SDS011;34086;51.076;13.722;2022-12-28T04:18:04;11.18;;;6.28;;
48263;SDS011;34086;51.076;13.722;2022-12-28T04:19:04;12.30;;;6.43;;
48263;SDS011;34086;51.076;13.722;2022-12-28T04:20:05;9.60;;;5.85;;
48263;SDS011;34086;51.076;13.722;2022-12-28T04:21:07;11.88;;;6.53;;
48263;SDS011;34086;51.076;13.722;2022-12-28T04:22:08;11.55;;;5.85;;
48263;SDS011;34086;51.076;13.722;2022-12-28T04:23:09;9.57;;;5.80;;
48263;SDS011;34086;51.076;13.722;2022-12-28T04:24:11;8.63;;;5.90;;
48263;SDS011;34086;51.076;13.722;2022-12-28T04:25:13;9.00;;;5.63;;
48263;SDS011;34086;51.076;13.722;2022-12-28T04:26:14;9.05;;;5.53;;
48263;SDS011;34086;51.076;13.722;2022-12-28T04:27:17;8.07;;;5.28;;
48263;SDS011;34086;51.076;13.722;2022-12-28T04:28:18;10.90;;;5.70;;
48263;SDS011;34086;51.076;13.722;2022-12-28T04:29:57;8.65;;;4.95;;
48263;SDS011;34086;51.076;13.722;2022-12-28T04:30:58;10.90;;;5.40;;
48263;SDS011;34086;51.076;13.722;2022-12-28T04:32:00;8.02;;;5.00;;
48263;SDS011;34086;51.076;13.722;2022-12-28T04:33:01;8.18;;;4.78;;
48263;SDS011;34086;51.076;13.722;2022-12-28T04:34:02;7.80;;;4.90;;
48263;SDS011;34086;51.076;13.722;2022-12-28T04:35:05;7.75;;;4.75;;
48263;SDS011;34086;51.076;13.722;2022-12-28T04:36:14;8.25;;;4.90;;
48263;SDS011;34086;51.076;13.722;2022-12-28T04:37:17;6.95;;;4.65;;
48263;SDS011;34086;51.076;13.722;2022-12-28T04:38:17;7.75;;;4.35;;
48263;SDS011;34086;51.076;13.722;2022-12-28T04:39:18;12.25;;;5.30;;
48263;SDS011;34086;51.076;13.722;2022-12-28T04:40:19;8.77;;;5.00;;
48263;SDS011;34086;51.076;13.722;2022-12-28T04:41:19;8.02;;;4.90;;
48263;SDS011;34086;51.076;13.722;2022-12-28T04:42:20;8.60;;;5.13;;
48263;SDS011;34086;51.076;13.722;2022-12-28T04:43:21;9.93;;;4.85;;
48263;SDS011;34086;51.076;13.722;2022-12-28T04:44:21;9.45;;;4.90;;
48263;SDS011;34086;51.076;13.722;2022-12-28T04:45:22;7.68;;;4.80;;
48263;SDS011;34086;51.076;13.722;2022-12-28T04:46:22;8.25;;;5.10;;
48263;SDS011;34086;51.076;13.722;2022-12-28T04:47:23;9.15;;;4.72;;
48263;SDS011;34086;51.076;13.722;2022-12-28T04:48:24;8.90;;;4.80;;
48263;SDS011;34086;51.076;13.722;2022-12-28T04:49:25;9.15;;;4.80;;
48263;SDS011;34086;51.076;13.722;2022-12-28T04:50:26;7.80;;;4.50;;
48263;SDS011;34086;51.076;13.722;2022-12-28T04:51:27;8.60;;;5.13;;
48263;SDS011;34086;51.076;13.722;2022-12-28T04:52:28;9.85;;;4.70;;
48263;SDS011;34086;51.076;13.722;2022-12-28T04:53:29;8.57;;;4.40;;
48263;SDS011;34086;51.076;13.722;2022-12-28T04:54:29;8.27;;;4.30;;
48263;SDS011;34086;51.076;13.722;2022-12-28T04:55:30;7.75;;;4.47;;
48263;SDS011;34086;51.076;13.722;2022-12-28T04:56:32;8.82;;;4.45;;
48263;SDS011;34086;51.076;13.722;2022-12-28T04:57:33;8.63;;;4.78;;
48263;SDS011;34086;51.076;13.722;2022-12-28T04:58:34;7.72;;;4.57;;
48263;SDS011;34086;51.076;13.722;2022-12-28T04:59:35;7.88;;;4.10;;
48263;SDS011;34086;51.076;13.722;2022-12-28T05:00:36;8.77;;;4.75;;
48263;SDS011;34086;51.076;13.722;2022-12-28T05:01:36;8.48;;;5.05;;
48263;SDS011;34086;51.076;13.722;2022-12-28T05:02:37;10.50;;;5.00;;
48263;SDS011;34086;51.076;13.722;2022-12-28T05:03:38;10.02;;;5.50;;
48263;SDS011;34086;51.076;13.722;2022-12-28T05:04:40;8.93;;;5.18;;
48263;SDS011;34086;51.076;13.722;2022-12-28T05:05:40;10.18;;;5.53;;
48263;SDS011;34086;51.076;13.722;2022-12-28T05:06:41;9.60;;;4.90;;
48263;SDS011;34086;51.076;13.722;2022-12-28T05:07:41;9.00;;;4.90;;
48263;SDS011;34086;51.076;13.722;2022-12-28T05:08:42;8.38;;;4.75;;
48263;SDS011;34086;51.076;13.722;2022-12-28T05:09:43;8.05;;;4.68;;
48263;SDS011;34086;51.076;13.722;2022-12-28T05:10:44;8.80;;;4.72;;
48263;SDS011;34086;51.076;13.722;2022-12-28T05:11:44;8.75;;;4.60;;
48263;SDS011;34086;51.076;13.722;2022-12-28T05:12:45;7.70;;;4.53;;
48263;SDS011;34086;51.076;13.722;2022-12-28T05:13:46;7.32;;;4.60;;
48263;SDS011;34086;51.076;13.722;2022-12-28T05:14:47;8.75;;;5.00;;
48263;SDS011;34086;51.076;13.722;2022-12-28T05:15:47;9.50;;;5.03;;
48263;SDS011;34086;51.076;13.722;2022-12-28T05:16:51;9.65;;;5.70;;
48263;SDS011;34086;51.076;13.722;2022-12-28T05:17:53;9.70;;;5.65;;
48263;SDS011;34086;51.076;13.722;2022-12-28T05:18:54;8.65;;;4.60;;
48263;SDS011;34086;51.076;13.722;2022-12-28T05:19:56;10.10;;;4.85;;
48263;SDS011;34086;51.076;13.722;2022-12-28T05:20:57;9.00;;;4.82;;
48263;SDS011;34086;51.076;13.722;2022-12-28T05:22:04;9.25;;;4.47;;
48263;SDS011;34086;51.076;13.722;2022-12-28T05:23:04;9.20;;;4.40;;
48263;SDS011;34086;51.076;13.722;2022-12-28T05:24:05;9.77;;;4.60;;
48263;SDS011;34086;51.076;13.722;2022-12-28T05:25:06;11.60;;;6.75;;
48263;SDS011;34086;51.076;13.722;2022-12-28T05:26:08;8.63;;;4.75;;
48263;SDS011;34086;51.076;13.722;2022-12-28T05:27:11;6.70;;;4.47;;
48263;SDS011;34086;51.076;13.722;2022-12-28T05:28:12;11.57;;;4.55;;
48263;SDS011;34086;51.076;13.722;2022-12-28T05:29:12;7.90;;;4.00;;
48263;SDS011;34086;51.076;13.722;2022-12-28T05:30:13;9.75;;;4.97;;
48263;SDS011;34086;51.076;13.722;2022-12-28T05:31:15;8.75;;;4.97;;
48263;SDS011;34086;51.076;13.722;2022-12-28T05:32:17;7.03;;;4.10;;
48263;SDS011;34086;51.076;13.722;2022-12-28T05:33:18;9.07;;;4.57;;
48263;SDS011;34086;51.076;13.722;2022-12-28T05:34:18;8.45;;;4.78;;
48263;SDS011;34086;51.076;13.722;2022-12-28T05:35:19;9.32;;;4.70;;
48263;SDS011;34086;51.076;13.722;2022-12-28T05:36:21;9.63;;;4.30;;
48263;SDS011;34086;51.076;13.722;2022-12-28T05:37:23;7.18;;;4.60;;
48263;SDS011;34086;51.076;13.722;2022-12-28T05:38:23;9.40;;;5.18;;
48263;SDS011;34086;51.076;13.722;2022-12-28T05:39:24;7.68;;;4.95;;
48263;SDS011;34086;51.076;13.722;2022-12-28T05:40:24;6.65;;;4.20;;
48263;SDS011;34086;51.076;13.722;2022-12-28T05:41:26;8.75;;;4.53;;
48263;SDS011;34086;51.076;13.722;2022-12-28T05:42:27;7.95;;;4.30;;
48263;SDS011;34086;51.076;13.722;2022-12-28T05:43:28;6.88;;;5.00;;
48263;SDS011;34086;51.076;13.722;2022-12-28T05:44:29;7.60;;;4.70;;
48263;SDS011;34086;51.076;13.722;2022-12-28T05:45:30;7.82;;;4.60;;
48263;SDS011;34086;51.076;13.722;2022-12-28T05:46:32;6.57;;;4.35;;
48263;SDS011;34086;51.076;13.722;2022-12-28T05:47:33;6.57;;;4.40;;
48263;SDS011;34086;51.076;13.722;2022-12-28T05:48:34;7.15;;;4.47;;
48263;SDS011;34086;51.076;13.722;2022-12-28T05:49:37;7.38;;;4.32;;
48263;SDS011;34086;51.076;13.722;2022-12-28T05:50:37;8.00;;;4.80;;
48263;SDS011;34086;51.076;13.722;2022-12-28T05:51:39;8.20;;;4.43;;
48263;SDS011;34086;51.076;13.722;2022-12-28T05:52:40;8.48;;;4.57;;
48263;SDS011;34086;51.076;13.722;2022-12-28T05:53:41;6.75;;;4.50;;
48263;SDS011;34086;51.076;13.722;2022-12-28T05:54:42;7.97;;;4.40;;
48263;SDS011;34086;51.076;13.722;2022-12-28T05:55:43;5.75;;;4.20;;
48263;SDS011;34086;51.076;13.722;2022-12-28T05:56:43;7.95;;;4.45;;
48263;SDS011;34086;51.076;13.722;2022-12-28T05:57:44;5.80;;;4.40;;
48263;SDS011;34086;51.076;13.722;2022-12-28T05:58:46;6.10;;;4.18;;
48263;SDS011;34086;51.076;13.722;2022-12-28T05:59:51;5.97;;;3.90;;
48263;SDS011;34086;51.076;13.722;2022-12-28T06:00:51;6.70;;;4.32;;
48263;SDS011;34086;51.076;13.722;2022-12-28T06:01:52;6.95;;;4.25;;
48263;SDS011;34086;51.076;13.722;2022-12-28T06:02:53;6.97;;;4.60;;
48263;SDS011;34086;51.076;13.722;2022-12-28T06:03:55;6.30;;;4.40;;
48263;SDS011;34086;51.076;13.722;2022-12-28T06:04:57;7.93;;;4.70;;
48263;SDS011;34086;51.076;13.722;2022-12-28T06:06:02;7.25;;;4.55;;
48263;SDS011;34086;51.076;13.722;2022-12-28T06:07:03;8.75;;;4.75;;
48263;SDS011;34086;51.076;13.722;2022-12-28T06:08:04;8.35;;;4.70;;
48263;SDS011;34086;51.076;13.722;2022-12-28T06:09:04;8.50;;;4.88;;
48263;SDS011;34086;51.076;13.722;2022-12-28T06:10:05;10.68;;;5.00;;
48263;SDS011;34086;51.076;13.722;2022-12-28T06:11:07;7.10;;;4.65;;
48263;SDS011;34086;51.076;13.722;2022-12-28T06:12:09;8.70;;;5.80;;
48263;SDS011;34086;51.076;13.722;2022-12-28T06:13:09;27.33;;;18.98;;
48263;SDS011;34086;51.076;13.722;2022-12-28T06:14:10;14.75;;;8.18;;
48263;SDS011;34086;51.076;13.722;2022-12-28T06:15:11;10.38;;;6.90;;
48263;SDS011;34086;51.076;13.722;2022-12-28T06:16:19;11.52;;;7.20;;
48263;SDS011;34086;51.076;13.722;2022-12-28T06:17:21;10.25;;;7.07;;
48263;SDS011;34086;51.076;13.722;2022-12-28T06:18:22;11.23;;;6.53;;
48263;SDS011;34086;51.076;13.722;2022-12-28T06:19:23;11.73;;;6.65;;
48263;SDS011;34086;51.076;13.722;2022-12-28T06:20:23;11.07;;;6.70;;
48263;SDS011;34086;51.076;13.722;2022-12-28T06:21:28;10.23;;;6.30;;
48263;SDS011;34086;51.076;13.722;2022-12-28T06:22:30;9.77;;;5.90;;
48263;SDS011;34086;51.076;13.722;2022-12-28T06:23:30;11.80;;;6.35;;
48263;SDS011;34086;51.076;13.722;2022-12-28T06:24:31;8.55;;;5.85;;
48263;SDS011;34086;51.076;13.722;2022-12-28T06:25:31;9.02;;;5.88;;
48263;SDS011;34086;51.076;13.722;2022-12-28T06:26:33;8.43;;;5.40;;
48263;SDS011;34086;51.076;13.722;2022-12-28T06:27:35;8.85;;;4.90;;
48263;SDS011;34086;51.076;13.722;2022-12-28T06:28:36;7.57;;;4.97;;
48263;SDS011;34086;51.076;13.722;2022-12-28T06:29:37;9.68;;;4.68;;
48263;SDS011;34086;51.076;13.722;2022-12-28T06:30:37;11.02;;;6.63;;
48263;SDS011;34086;51.076;13.722;2022-12-28T06:31:39;9.70;;;6.15;;
48263;SDS011;34086;51.076;13.722;2022-12-28T06:32:42;12.35;;;6.00;;
48263;SDS011;34086;51.076;13.722;2022-12-28T06:33:43;10.50;;;6.00;;
48263;SDS011;34086;51.076;13.722;2022-12-28T06:34:45;10.02;;;5.95;;
48263;SDS011;34086;51.076;13.722;2022-12-28T06:35:45;8.93;;;5.10;;